首页
METAR-TAF:

METAR-TAF

机场 :

Songkhla, 泰国

纬度: 07-12N, 经度: 100-36E, 海拔: 4米

当前天气观测

该预报发布于7小时和57分钟前的11:00 UTC
风速10节,风向东转东北
温度 29°C
湿度 74%
气压 1010 hPa
能见度10公里或以上
少量云层高于2000英尺

METAR: VTSH 211100Z 06010KT 9999 FEW020 29/24 Q1010 NOSIG

时间: 01:57 (18:57 UTC)

预报

该预报发布于1小时和57分钟前的17:00 UTC
预报有效从21日的 18点(UTC)到 22日的 18点(UTC)
风速5节,风向东转东北
能见度10公里或以上
少量云层高于2000英尺

TAF: VTSH 211700Z 2118/2218 06005KT 9999 FEW020

超过4000个机场的气象观测和天气预报(METAR&TAF报告)。

可查询的气象台以黄色和红色小点在地图上表示。

将鼠标移到小点上方,可查看气象台名称。

然后点击查看天气观测和预报。

如需切换地图:点击带黑十字的绿色按钮放大地图;点击带横线的绿色按钮缩小地图;或者点击绿色箭头查看邻近地区的地图。


METAR-TAF: